Carrabassett Regional Airport (B21)
CARABASET, ME
Field Elevation: 874
Lat: 45°05.12N  Long: 70°12.98W
CTAF/Unicom Freq: 122.8000
   
    
Weather Advisories
2019-01-19   13:22 Z
Altimeter 30.24" Hg
Wind 020° @ 8 KT
Gusts 14 KT
Visibility 10 SM
Temperature -17° C (1° F)
Dewpoint -24° C (-11° F)
Relative Humidity 52%
Density Altitude --
Condensation Altitude 4,500 feet
Wind Chill: -25° C (-13° F)
Wind and Runways
Indicated Runway = 35
Headwind = 7 kt
Crosswind = 4 kt
History
 
 
 
More Info
NOAA Forecast
 
 
About Us
Belfort Instrument
 
 
FAA Disclaimer: The data displayed is for advisory purposes only and is not to be used for flight planning or operations. For official data, please call (not available) to hear the current automated AWOS voice message.
  METAR B21 191322Z AUTO 02008G14KT 10 SM M17/M24 A3024